createdAt,value
2023-03-21T00:02:08.245Z,20.50
2023-03-21T00:04:56.589Z,21.10
2023-03-21T00:07:43.937Z,21.50
2023-03-21T00:10:39.547Z,21.60
2023-03-21T00:13:32.540Z,21.50
2023-03-21T00:16:20.559Z,21.80
2023-03-21T00:19:14.575Z,21.90
2023-03-21T00:25:09.274Z,22.20
2023-03-21T00:28:07.587Z,22.30
2023-03-21T00:31:00.370Z,21.70
2023-03-21T00:33:46.257Z,22.10
2023-03-21T00:36:32.047Z,21.70
2023-03-21T00:39:17.803Z,22.10
2023-03-21T00:42:03.940Z,21.90
2023-03-21T00:44:49.679Z,22.00
2023-03-21T00:47:37.722Z,22.00
2023-03-21T00:50:24.046Z,22.00
2023-03-21T00:53:17.175Z,22.20
2023-03-21T00:56:02.600Z,22.20
2023-03-21T00:58:48.134Z,21.90
2023-03-21T01:01:33.300Z,22.20
2023-03-21T01:04:18.573Z,22.20
2023-03-21T01:07:03.952Z,22.20
2023-03-21T01:09:52.592Z,22.60
2023-03-21T01:12:38.012Z,22.80
2023-03-21T01:15:24.200Z,23.10
2023-03-21T01:18:09.559Z,23.00
2023-03-21T01:20:57.493Z,23.20
2023-03-21T01:23:46.226Z,23.50
2023-03-21T01:26:31.716Z,23.00
2023-03-21T01:29:17.330Z,24.30
2023-03-21T01:32:02.492Z,23.70
2023-03-21T01:34:48.192Z,24.00
2023-03-21T01:37:36.053Z,23.90
2023-03-21T01:40:27.290Z,23.70
2023-03-21T01:43:36.064Z,23.80
2023-03-21T01:47:10.586Z,23.90
2023-03-21T01:50:01.840Z,23.80
2023-03-21T01:52:49.989Z,23.70
2023-03-21T01:55:37.122Z,23.70
2023-03-21T01:58:23.673Z,23.80
2023-03-21T02:01:10.660Z,23.90
2023-03-21T02:04:03.805Z,24.20
2023-03-21T02:07:09.824Z,24.10
2023-03-21T02:09:58.180Z,24.10
2023-03-21T02:12:43.470Z,24.20
2023-03-21T02:15:29.837Z,24.30
2023-03-21T02:18:44.327Z,24.50
2023-03-21T02:21:32.751Z,24.50
2023-03-21T02:24:28.224Z,24.90
2023-03-21T02:27:18.814Z,25.00
2023-03-21T02:30:37.590Z,24.90
2023-03-21T02:33:40.105Z,25.00
2023-03-21T02:36:56.228Z,25.30
2023-03-21T02:39:55.370Z,26.10
2023-03-21T02:42:59.805Z,26.00
2023-03-21T02:46:10.901Z,26.10
2023-03-21T02:49:09.134Z,26.20
2023-03-21T02:52:05.406Z,26.30
2023-03-21T02:55:04.924Z,26.30
2023-03-21T02:57:52.660Z,26.50
2023-03-21T03:00:43.383Z,26.60
2023-03-21T03:03:34.479Z,26.90
2023-03-21T03:06:24.677Z,27.00
2023-03-21T03:09:38.454Z,27.10
2023-03-21T03:12:59.520Z,27.20
2023-03-21T03:16:05.383Z,27.40
2023-03-21T03:18:59.357Z,27.50
2023-03-21T03:21:56.654Z,27.60
2023-03-21T03:25:18.551Z,27.80
2023-03-21T03:28:08.653Z,27.90
2023-03-21T03:31:08.637Z,28.00
2023-03-21T03:34:02.222Z,28.10
2023-03-21T03:36:56.356Z,28.40
2023-03-21T03:39:58.038Z,28.80
2023-03-21T03:42:46.491Z,29.20
2023-03-21T03:45:42.529Z,29.90
2023-03-21T03:48:37.222Z,29.70
2023-03-21T03:51:50.360Z,29.80
2023-03-21T03:54:43.983Z,29.80
2023-03-21T03:57:30.156Z,30.00
2023-03-21T04:00:17.293Z,30.30
2023-03-21T04:03:07.345Z,30.60
2023-03-21T04:05:54.053Z,31.50
2023-03-21T04:08:39.374Z,31.70
2023-03-21T04:11:25.094Z,31.60
2023-03-21T04:14:10.726Z,31.60
2023-03-21T04:16:56.256Z,31.40
2023-03-21T04:19:43.574Z,31.10
2023-03-21T04:22:29.024Z,31.80
2023-03-21T04:25:21.849Z,31.90
2023-03-21T04:28:12.409Z,31.40
2023-03-21T04:31:05.227Z,31.50
2023-03-21T04:33:56.148Z,31.10
2023-03-21T04:37:04.196Z,31.20
2023-03-21T04:39:51.074Z,31.50
2023-03-21T04:42:36.700Z,31.90
2023-03-21T04:45:24.318Z,32.20
2023-03-21T04:48:10.409Z,32.20
2023-03-21T04:50:56.509Z,32.00
2023-03-21T04:53:46.935Z,32.00
2023-03-21T04:56:36.207Z,32.00
2023-03-21T04:59:22.073Z,32.00
2023-03-21T05:02:09.849Z,31.80
2023-03-21T05:04:57.421Z,32.60
2023-03-21T05:07:44.812Z,33.00
2023-03-21T05:10:32.223Z,32.90
2023-03-21T05:13:19.952Z,33.30
2023-03-21T05:16:05.642Z,33.50
2023-03-21T05:18:54.763Z,33.20
2023-03-21T05:21:43.499Z,33.10
2023-03-21T05:24:29.357Z,32.50
2023-03-21T05:27:26.106Z,33.00
2023-03-21T05:30:17.478Z,33.80
2023-03-21T05:33:03.773Z,34.30
2023-03-21T05:35:53.910Z,34.90
2023-03-21T05:38:42.784Z,35.80
2023-03-21T05:41:28.373Z,35.80
2023-03-21T05:44:16.061Z,36.00
2023-03-21T05:47:01.390Z,36.00
2023-03-21T05:49:47.259Z,35.70
2023-03-21T05:52:33.038Z,35.80
2023-03-21T05:55:18.379Z,35.00
2023-03-21T05:58:04.137Z,34.70
2023-03-21T06:00:49.964Z,34.50
2023-03-21T06:03:37.780Z,34.50
2023-03-21T06:06:22.928Z,34.10
2023-03-21T06:09:08.550Z,33.90
2023-03-21T06:11:56.660Z,34.00
2023-03-21T06:14:42.292Z,34.30
2023-03-21T06:17:27.826Z,34.30
2023-03-21T06:20:13.669Z,34.40
2023-03-21T06:23:01.519Z,34.40
2023-03-21T06:25:48.974Z,35.20
2023-03-21T06:28:36.883Z,34.60
2023-03-21T06:31:22.855Z,34.40
2023-03-21T06:34:11.646Z,33.70
2023-03-21T06:36:59.670Z,33.90
2023-03-21T06:39:46.895Z,33.60
2023-03-21T06:42:32.668Z,33.40
2023-03-21T06:45:18.007Z,32.80
2023-03-21T06:48:03.238Z,33.10
2023-03-21T06:50:54.878Z,32.90
2023-03-21T06:53:41.508Z,32.80
2023-03-21T06:56:26.985Z,32.60
2023-03-21T06:59:12.988Z,31.50
2023-03-21T07:01:59.586Z,31.40
2023-03-21T07:04:47.385Z,32.30
2023-03-21T07:07:34.772Z,30.70
2023-03-21T07:10:20.352Z,30.70
2023-03-21T07:13:08.310Z,30.50
2023-03-21T07:15:54.536Z,30.70
2023-03-21T07:18:40.128Z,32.20
2023-03-21T07:21:28.112Z,32.30
2023-03-21T07:24:13.490Z,32.30
2023-03-21T07:27:01.847Z,33.00
2023-03-21T07:29:50.441Z,33.00
2023-03-21T07:32:37.987Z,32.70
2023-03-21T07:35:26.457Z,33.60
2023-03-21T07:38:12.241Z,33.00
2023-03-21T07:41:00.961Z,33.20
2023-03-21T07:43:48.764Z,33.10
2023-03-21T07:46:34.619Z,32.90
2023-03-21T07:49:19.771Z,33.60
2023-03-21T07:52:07.746Z,32.50
2023-03-21T07:54:55.597Z,32.90
2023-03-21T07:57:46.449Z,32.40
2023-03-21T08:00:32.114Z,32.20
2023-03-21T08:03:20.512Z,32.40
2023-03-21T08:06:09.414Z,32.00
2023-03-21T08:08:54.706Z,32.40
2023-03-21T08:11:42.767Z,32.40
2023-03-21T08:14:30.248Z,31.70
2023-03-21T08:17:15.887Z,31.90
2023-03-21T08:20:01.259Z,32.20
2023-03-21T08:22:50.748Z,30.70
2023-03-21T08:25:39.367Z,30.50
2023-03-21T08:28:27.548Z,29.70
2023-03-21T08:31:14.184Z,29.90
2023-03-21T08:33:59.569Z,30.00
2023-03-21T08:36:45.060Z,29.30
2023-03-21T08:39:32.885Z,30.20
2023-03-21T08:42:18.354Z,31.00
2023-03-21T08:45:05.150Z,31.60
2023-03-21T08:47:50.799Z,31.40
2023-03-21T08:50:36.113Z,31.60
2023-03-21T08:53:21.246Z,33.10
2023-03-21T08:56:09.616Z,31.80
2023-03-21T08:58:55.552Z,31.80
2023-03-21T09:01:43.105Z,31.90
2023-03-21T09:04:30.589Z,31.60
2023-03-21T09:07:18.085Z,32.20
2023-03-21T09:10:23.077Z,31.70
2023-03-21T09:13:13.326Z,31.80
2023-03-21T09:16:01.320Z,31.00
2023-03-21T09:18:48.856Z,31.10
2023-03-21T09:21:35.923Z,31.50
2023-03-21T09:24:21.960Z,31.20
2023-03-21T09:27:07.878Z,30.80
2023-03-21T09:29:54.162Z,30.20
2023-03-21T09:32:39.909Z,29.60
2023-03-21T09:35:27.075Z,29.80
2023-03-21T09:38:12.788Z,28.90
2023-03-21T09:41:17.692Z,29.60
2023-03-21T09:44:19.995Z,29.90
2023-03-21T09:47:13.921Z,29.80
2023-03-21T09:50:23.404Z,28.20
2023-03-21T09:53:09.569Z,27.60
2023-03-21T09:55:57.405Z,27.30
2023-03-21T09:58:54.735Z,26.80
2023-03-21T10:01:45.449Z,26.60
2023-03-21T10:04:33.993Z,26.20
2023-03-21T10:07:19.956Z,25.70
2023-03-21T10:10:07.436Z,25.20
2023-03-21T10:16:23.392Z,23.60
2023-03-21T10:19:16.097Z,24.10
2023-03-21T10:22:03.652Z,24.20
2023-03-21T10:24:53.967Z,23.70
2023-03-21T10:27:41.670Z,23.40
2023-03-21T10:30:42.341Z,22.60
2023-03-21T10:33:49.537Z,22.40
2023-03-21T10:36:36.076Z,22.60
2023-03-21T10:39:40.892Z,22.80
2023-03-21T10:42:32.831Z,22.10
2023-03-21T10:45:20.731Z,21.90
2023-03-21T10:48:08.558Z,22.00
2023-03-21T10:50:56.221Z,21.70
2023-03-21T10:53:48.503Z,21.90
2023-03-21T10:56:45.394Z,21.80
2023-03-21T10:59:43.229Z,22.10
2023-03-21T11:02:33.642Z,22.00
2023-03-21T11:05:23.014Z,22.60
2023-03-21T11:08:14.694Z,22.90
2023-03-21T11:11:06.712Z,23.20
2023-03-21T11:14:01.245Z,23.00
2023-03-21T11:16:46.855Z,23.40
2023-03-21T11:19:35.404Z,23.30
2023-03-21T11:22:22.596Z,23.60
2023-03-21T11:25:15.316Z,23.90
2023-03-21T11:28:15.850Z,23.90
2023-03-21T11:31:03.371Z,23.80
2023-03-21T11:33:55.359Z,23.90
2023-03-21T11:36:45.218Z,24.00
2023-03-21T11:39:41.089Z,24.00
2023-03-21T11:42:32.793Z,24.00
2023-03-21T11:45:24.750Z,24.10
2023-03-21T11:48:14.610Z,23.90
2023-03-21T11:51:04.797Z,24.00
2023-03-21T11:54:12.817Z,24.10
2023-03-21T11:57:29.669Z,23.70
2023-03-21T12:00:26.820Z,23.70
2023-03-21T12:03:48.613Z,23.10
2023-03-21T12:06:56.177Z,22.00
2023-03-21T12:09:43.413Z,20.50
2023-03-21T12:12:55.275Z,20.30
2023-03-21T12:15:48.555Z,20.50
2023-03-21T12:19:22.514Z,19.70
2023-03-21T12:22:52.534Z,18.10
2023-03-21T12:26:04.128Z,18.00
2023-03-21T12:29:30.063Z,18.60
2023-03-21T12:32:27.388Z,19.60
2023-03-21T12:35:42.010Z,20.30
2023-03-21T12:38:45.461Z,20.30
2023-03-21T12:41:38.420Z,21.50
2023-03-21T12:44:32.822Z,21.90
2023-03-21T12:47:25.178Z,21.60
2023-03-21T12:50:21.743Z,21.90
2023-03-21T12:53:47.306Z,22.00
2023-03-21T12:57:08.223Z,21.90
2023-03-21T13:00:16.065Z,21.60
2023-03-21T13:03:12.772Z,22.30
2023-03-21T13:06:05.685Z,22.40
2023-03-21T13:09:07.488Z,22.60
2023-03-21T13:11:57.249Z,21.80
2023-03-21T13:14:59.970Z,21.90
2023-03-21T13:17:56.667Z,21.50
2023-03-21T13:20:57.298Z,20.70
2023-03-21T13:23:58.359Z,20.70
2023-03-21T13:26:51.739Z,20.60
2023-03-21T13:29:52.062Z,21.20
2023-03-21T13:32:46.260Z,22.10
2023-03-21T13:35:38.260Z,21.90
2023-03-21T13:38:30.458Z,22.60
2023-03-21T13:41:22.642Z,22.60
2023-03-21T13:44:43.974Z,22.70
2023-03-21T13:47:40.624Z,22.20
2023-03-21T13:50:36.733Z,22.50
2023-03-21T13:53:24.258Z,22.30
2023-03-21T13:56:22.761Z,22.20
2023-03-21T13:59:13.282Z,22.60
2023-03-21T14:02:16.946Z,22.40
2023-03-21T14:05:20.620Z,22.00
2023-03-21T14:08:21.565Z,21.70
2023-03-21T14:11:20.635Z,22.10
2023-03-21T14:14:06.720Z,22.60
2023-03-21T14:16:55.429Z,22.40
2023-03-21T14:19:41.134Z,23.00
2023-03-21T14:22:27.091Z,24.70
2023-03-21T14:25:14.890Z,25.10
2023-03-21T14:28:03.964Z,24.90
2023-03-21T14:30:56.602Z,24.90
2023-03-21T14:33:47.660Z,24.60
2023-03-21T14:36:43.163Z,24.50
2023-03-21T14:39:33.045Z,24.60
2023-03-21T14:42:24.744Z,23.70
2023-03-21T14:45:22.990Z,23.20
2023-03-21T14:48:14.185Z,22.50
2023-03-21T14:51:12.289Z,21.90
2023-03-21T14:54:00.332Z,20.90
2023-03-21T14:56:49.920Z,19.40
2023-03-21T14:59:38.825Z,19.20
2023-03-21T15:02:28.188Z,18.30
2023-03-21T15:05:38.437Z,17.60
2023-03-21T15:08:26.641Z,17.60
2023-03-21T15:11:13.205Z,17.20
2023-03-21T15:14:02.784Z,17.80
2023-03-21T15:16:49.278Z,17.80
2023-03-21T15:19:38.717Z,18.50
2023-03-21T15:22:38.943Z,19.60
2023-03-21T15:25:29.218Z,20.20
2023-03-21T15:28:14.920Z,20.70
2023-03-21T15:31:00.915Z,21.60
2023-03-21T15:33:52.064Z,21.60
2023-03-21T15:36:45.308Z,22.20
2023-03-21T15:39:31.502Z,22.50
2023-03-21T15:42:39.264Z,22.70
2023-03-21T15:45:27.054Z,22.90
2023-03-21T15:48:14.592Z,23.20
2023-03-21T15:51:07.998Z,23.50
2023-03-21T15:53:56.496Z,23.60
2023-03-21T15:56:46.054Z,24.30
2023-03-21T15:59:41.019Z,24.40
2023-03-21T16:02:30.822Z,24.40
2023-03-21T16:05:25.401Z,24.40
2023-03-21T16:08:32.572Z,24.40
2023-03-21T16:11:27.940Z,24.80
2023-03-21T16:14:13.313Z,25.10
2023-03-21T16:16:59.125Z,25.20
2023-03-21T16:19:47.567Z,25.50
2023-03-21T16:22:35.685Z,25.70
2023-03-21T16:25:24.055Z,25.80
2023-03-21T16:28:17.532Z,25.80
2023-03-21T16:31:03.112Z,26.00
2023-03-21T16:33:48.878Z,26.10
2023-03-21T16:36:37.260Z,26.30
2023-03-21T16:39:26.219Z,26.60
2023-03-21T16:42:14.305Z,26.70
2023-03-21T16:44:59.412Z,26.50
2023-03-21T16:47:47.528Z,26.80
2023-03-21T16:50:42.259Z,26.80
2023-03-21T16:53:27.957Z,26.90
2023-03-21T16:56:24.356Z,27.00
2023-03-21T16:59:13.066Z,27.20
2023-03-21T17:01:58.788Z,27.20
2023-03-21T17:04:47.067Z,27.40
2023-03-21T17:07:32.694Z,27.50
2023-03-21T17:10:24.976Z,27.60
2023-03-21T17:13:10.628Z,28.00
2023-03-21T17:15:56.122Z,28.00
2023-03-21T17:18:46.395Z,28.10
2023-03-21T17:21:36.348Z,28.00
2023-03-21T17:24:26.036Z,28.00
2023-03-21T17:27:14.514Z,28.10
2023-03-21T17:30:04.787Z,28.20
2023-03-21T17:32:51.603Z,28.50
2023-03-21T17:35:39.051Z,28.40
2023-03-21T17:38:24.934Z,28.50
2023-03-21T17:41:13.553Z,28.60
2023-03-21T17:44:02.868Z,28.70
2023-03-21T17:46:50.402Z,28.90
2023-03-21T17:49:39.893Z,28.90
2023-03-21T17:52:25.147Z,29.00
2023-03-21T17:55:11.169Z,29.20
2023-03-21T17:58:01.325Z,29.30
2023-03-21T18:00:47.055Z,29.40
2023-03-21T18:03:32.910Z,29.50
2023-03-21T18:06:21.739Z,29.60
2023-03-21T18:09:11.447Z,29.70
2023-03-21T18:11:57.102Z,29.80
2023-03-21T18:14:45.471Z,29.90
2023-03-21T18:17:31.238Z,29.80
2023-03-21T18:20:20.921Z,30.00
2023-03-21T18:23:06.397Z,30.00
2023-03-21T18:25:54.437Z,30.10
2023-03-21T18:28:43.610Z,30.10
2023-03-21T18:31:29.443Z,30.30
2023-03-21T18:34:15.007Z,30.30
2023-03-21T18:37:04.372Z,30.30
2023-03-21T18:39:49.838Z,30.30
2023-03-21T18:42:36.812Z,30.40
2023-03-21T18:45:25.061Z,30.40
2023-03-21T18:48:13.167Z,30.60
2023-03-21T18:50:58.593Z,30.70
2023-03-21T18:53:46.721Z,30.60
2023-03-21T18:59:39.203Z,30.70
2023-03-21T19:02:25.258Z,30.60
2023-03-21T19:05:11.012Z,30.70
2023-03-21T19:07:57.753Z,30.70
2023-03-21T19:10:43.355Z,30.80
2023-03-21T19:13:28.974Z,30.80
2023-03-21T19:16:17.934Z,30.70
2023-03-21T19:19:09.305Z,30.80
2023-03-21T19:21:55.242Z,31.00
2023-03-21T19:24:41.427Z,31.30
2023-03-21T19:27:27.043Z,31.50
2023-03-21T19:30:15.816Z,31.50
2023-03-21T19:33:01.957Z,31.70
2023-03-21T19:36:08.942Z,32.20
2023-03-21T19:38:56.269Z,32.40
2023-03-21T19:41:44.555Z,32.60
2023-03-21T19:44:33.308Z,33.60
2023-03-21T19:47:20.688Z,33.40
2023-03-21T19:50:43.804Z,34.10
2023-03-21T19:53:13.645Z,35.00
2023-03-21T19:56:01.904Z,36.20
2023-03-21T19:58:52.048Z,36.60
2023-03-21T20:01:37.752Z,38.20
2023-03-21T20:04:27.380Z,37.60
2023-03-21T20:07:13.341Z,38.10
2023-03-21T20:09:59.367Z,38.80
2023-03-21T20:12:45.353Z,39.40
2023-03-21T20:15:31.165Z,39.80
2023-03-21T20:18:20.359Z,40.80
2023-03-21T20:21:16.128Z,40.60
2023-03-21T20:24:03.727Z,41.10
2023-03-21T20:26:53.409Z,41.30
2023-03-21T20:32:46.890Z,42.10
2023-03-21T20:36:23.652Z,42.50
2023-03-21T20:38:38.087Z,42.70
2023-03-21T20:41:24.280Z,42.70
2023-03-21T20:44:44.838Z,42.70
2023-03-21T20:47:19.465Z,43.10
2023-03-21T20:50:07.763Z,43.80
2023-03-21T20:53:06.597Z,44.10
2023-03-21T20:55:55.048Z,45.10
2023-03-21T20:59:04.526Z,45.90
2023-03-21T21:01:49.398Z,46.30
2023-03-21T21:04:55.809Z,47.70
2023-03-21T21:07:43.778Z,47.50
2023-03-21T21:10:36.467Z,47.70
2023-03-21T21:13:30.948Z,48.40
2023-03-21T21:16:21.487Z,48.90
2023-03-21T21:19:06.898Z,49.10
2023-03-21T21:21:52.539Z,49.60
2023-03-21T21:24:40.993Z,50.40
2023-03-21T21:27:26.431Z,50.00
2023-03-21T21:30:16.634Z,50.20
2023-03-21T21:33:01.799Z,50.30
2023-03-21T21:35:48.988Z,50.60
2023-03-21T21:38:35.869Z,51.20
2023-03-21T21:41:24.037Z,51.30
2023-03-21T21:44:09.228Z,51.90
2023-03-21T21:46:54.653Z,52.60
2023-03-21T21:49:41.221Z,53.50
2023-03-21T21:52:26.656Z,53.30
2023-03-21T21:55:13.106Z,53.70
2023-03-21T21:57:59.271Z,54.20
2023-03-21T22:00:48.687Z,54.30
2023-03-21T22:03:36.630Z,54.70
2023-03-21T22:06:24.181Z,55.10
2023-03-21T22:09:13.923Z,55.30
2023-03-21T22:11:59.184Z,55.50
2023-03-21T22:14:46.847Z,55.40
2023-03-21T22:17:32.076Z,55.30
2023-03-21T22:20:20.535Z,55.60
2023-03-21T22:23:05.845Z,55.90
2023-03-21T22:25:52.323Z,56.10
2023-03-21T22:28:42.199Z,56.60
2023-03-21T22:31:33.325Z,56.80
2023-03-21T22:34:19.234Z,56.80
2023-03-21T22:37:04.687Z,57.00
2023-03-21T22:39:50.626Z,57.40
2023-03-21T22:42:37.603Z,57.50
2023-03-21T22:45:22.816Z,57.50
2023-03-21T22:48:10.445Z,57.70
2023-03-21T22:50:59.778Z,57.60
2023-03-21T22:53:48.179Z,57.50
2023-03-21T22:56:33.432Z,57.70
2023-03-21T22:59:21.753Z,58.00
2023-03-21T23:02:09.927Z,58.60
2023-03-21T23:04:55.897Z,59.20
2023-03-21T23:07:43.324Z,59.40
2023-03-21T23:10:28.685Z,59.30
2023-03-21T23:13:14.101Z,59.50
2023-03-21T23:16:06.631Z,59.50
2023-03-21T23:18:53.700Z,59.80
2023-03-21T23:21:40.088Z,59.50
2023-03-21T23:24:28.204Z,59.20
2023-03-21T23:27:14.304Z,59.00
2023-03-21T23:29:59.619Z,58.40
2023-03-21T23:32:45.389Z,57.80
2023-03-21T23:35:34.475Z,57.30
2023-03-21T23:38:20.686Z,57.50
2023-03-21T23:41:13.444Z,57.40
2023-03-21T23:44:01.035Z,57.30
2023-03-21T23:46:48.500Z,57.50
2023-03-21T23:49:37.571Z,57.50
2023-03-21T23:52:23.131Z,57.40
2023-03-21T23:58:13.267Z,59.50
